Stow, Maine
Current Conditions -  °F | °C
As of 6:54 AM on Monday 22 Dec 2014 (Local Time) from KIZG Reporting Station
Overcast Overcast  
Wind Chill: 26°   Ceiling: 4200
Heat Index: 26°   Visibility: 10mi
Dew Point: 23°   Wind: 0mph
Humidity: 88%   Direction: NA
Pressure: 30.4"   Gusts: NA
Location:  44.0478°N, 70.9547°W
Report Text: KIZG 221154Z AUTO 00000KT 10SM OVC042 M03/M05 A3040 RMK AO2 SLP302 60000 T10331050 11033 21039 53010
Loading
Personal Weather Stations






























Interactive Weather Map New forecast layout! Learn more

10-Day Weather Forecast

Advertisements
Track Severe Weather on mobile